Aviation Digital Data Service (ADDS)

Output produced by METARs form (1738 UTC 03 December 2016)
found at http://www.aviationweather.gov/adds/metars/
 
KSBY 031654Z 32014G26KT 10SM CLR 11/M01 A3015 RMK AO2 PK WND 33026/1648 SLP210 T01061011
KSBY 031720Z 0318/0418 32012G20KT P6SM SKC 
     FM032300 30008KT P6SM SCT200 
     FM041100 32004KT P6SM BKN200